Startpagina
METAR-TAF:

METAR-TAF

Vliegvelden :

Hat Island, Nunavut, Canada

breedte: 68-19N, lengte: 100-05W, hoogte: 36 m

Actueel weer

Dit bericht is 1 uur en het 14 minuten geleden gemaakt, om 09:00 UTC
Wind 13 kt uit het zuidzuidoosten
Temperatuur -21°C
Vochtigheid 84%
Druk 1037 hPa

METAR: CWIL 050900Z AUTO 16013KT ////SM NCD M21/M23 A3063

Tijdstip: 04:14 (10:14 UTC)


TAF: ontbreekt

Waarnemingen en weersverwachtingen van meer dan 4000 vliegvelden (METAR en TAF).

De beschikbare stations zijn de gele en rode punten op de kaart.

Ga met uw muis naar het station om de naam te zien.

Klik dan om waarnemingen en weersverwachtingen te zien.

kaart wijzigen: klik op de groene knoppen met een zwart kruis om in te zoomen, op de groene knop met een streepje om uit te zoomen of op de groene pijlen voor aangrenzende kaarten.


METAR-TAF: